Dig In — WDF2086 — position and weather

sailwx.info

Track history (hours):
 
Tides and Currents Weather Stations Pressure Air Temp Water Temp Dewpoint Dewpoint Depression Visibility Wind Speed Wind Dir Waves Ship Positions

Dig In

Owner: Evans, Joseph W, Bacliff,, TX. More information available from US FCC via Universal Licensing System and Coast Guard Vessel Documentation Center.

Last reported at 2018-Apr-09 19:37 UTC. Time now 2018-Jul-16 12:33 UTC.
Position N 30°00' W 093°14'.
Warning: this ship's position is months out of date.

Length 16 m.

Type: Pleasure craft. MMSI: 367424660.

Date/timePositionNaut miles runAvg speedWind from/ knotsBaromVisibWave heightAir tempDewpointWater temp
2018-Apr-09 19:37N 30°00' W 093°14'1 9.0
2018-Apr-09 19:30N 30°01' W 093°14'510.4
2018-Apr-09 18:59N 30°05' W 093°18'1 1.1
2018-Apr-09 18:28N 30°06' W 093°18'2 4.7
2018-Apr-09 18:00N 30°05' W 093°20'2214.4
2018-Apr-09 16:30N 30°01' W 093°45'612.1
2018-Apr-09 16:00N 29°58' W 093°51'510.3
2018-Apr-09 15:30N 29°54' W 093°54'510.7
2018-Apr-09 15:00N 29°49' W 093°58'815.5
2018-Apr-09 14:30N 29°43' W 093°52'815.3
2018-Apr-09 14:00N 29°37' W 093°47'0 1.0
2018-Apr-09 13:30N 29°37' W 093°48'815.6
2018-Apr-09 13:00N 29°44' W 093°52'1 1.6
2018-Apr-09 12:30N 29°44' W 093°53'0 0.0
2018-Apr-09 11:59N 29°44' W 093°53'0 0.0
2018-Apr-09 11:30N 29°44' W 093°53'0 0.0
2018-Apr-09 11:00N 29°44' W 093°53'0 0.0
2018-Apr-09 10:30N 29°44' W 093°53'0 0.0
2018-Apr-09 10:00N 29°44' W 093°53'0 0.0
2018-Apr-09 09:29N 29°44' W 093°53'0 0.0
2018-Apr-09 09:00N 29°44' W 093°53'0 0.0
2018-Apr-09 08:29N 29°44' W 093°53'0 0.0
2018-Apr-09 08:00N 29°44' W 093°53'0 0.0
2018-Apr-09 07:30N 29°44' W 093°53'0 0.0
2018-Apr-09 07:00N 29°44' W 093°53'0 0.0
2018-Apr-09 06:30N 29°44' W 093°53'0 0.0
2018-Apr-09 05:59N 29°44' W 093°53'0 0.0
2018-Apr-09 05:29N 29°44' W 093°53'0 0.0
2018-Apr-09 05:00N 29°44' W 093°53'0 0.0
2018-Apr-09 04:30N 29°44' W 093°53'0 0.0
2018-Apr-09 04:00N 29°44' W 093°53'0 0.0
2018-Apr-09 03:28N 29°44' W 093°53'0 0.0
2018-Apr-09 03:00N 29°44' W 093°53'0 0.0
2018-Apr-09 02:30N 29°44' W 093°53'0 0.0
2018-Apr-09 02:00N 29°44' W 093°53'0 0.0
2018-Apr-09 01:29N 29°44' W 093°53'0 0.0
2018-Apr-09 01:00N 29°44' W 093°53'0 0.0
2018-Apr-09 00:30N 29°44' W 093°53'0 0.0
2018-Apr-09 00:00N 29°44' W 093°53'0 0.0
2018-Apr-08 23:30N 29°44' W 093°53'4 7.2
2018-Apr-08 23:00N 29°41' W 093°50'59 9.1
2018-Apr-08 16:33N 29°33' W 094°57'0 8.1
2018-Apr-08 16:30N 29°33' W 094°57'4 7.0
2018-Apr-08 16:01N 29°33' W 095°01'1 1.1
2018-Apr-08 15:31N 29°33' W 095°02'0 0.6
2018-Apr-08 14:58N 29°33' W 095°02'0 0.0
2018-Apr-08 14:28N 29°33' W 095°02'0 0.0
2018-Apr-08 14:01N 29°33' W 095°02'0 0.0
2018-Apr-08 13:25N 29°33' W 095°02'0 0.0
2018-Apr-08 12:58N 29°33' W 095°02'0 0.0
2018-Apr-08 12:17N 29°33' W 095°02'0 0.0
2018-Apr-08 11:59N 29°33' W 095°02'0 0.0
2018-Apr-08 11:26N 29°33' W 095°02'0 0.0
2018-Apr-08 10:59N 29°33' W 095°02'0 0.0
2018-Apr-08 10:29N 29°33' W 095°02'0 0.0
2018-Apr-08 09:25N 29°33' W 095°02'0 0.0
2018-Apr-08 08:57N 29°33' W 095°02'0 0.0
2018-Apr-08 08:28N 29°33' W 095°02'0 0.0
2018-Apr-08 08:00N 29°33' W 095°02'0 0.0
2018-Apr-08 07:28N 29°33' W 095°02'0 0.0
2018-Apr-08 06:56N 29°33' W 095°02'0 0.1
2018-Apr-08 06:25N 29°34' W 095°02'0 0.1
2018-Apr-08 05:57N 29°33' W 095°02'0 0.0
2018-Apr-08 05:30N 29°33' W 095°02'0 0.0
2018-Apr-08 05:00N 29°33' W 095°02'0 0.0
2018-Apr-08 04:27N 29°33' W 095°02'0 0.0
2018-Apr-08 04:00N 29°33' W 095°02'0 0.0
2018-Apr-08 03:30N 29°34' W 095°02'0 0.0
2018-Apr-08 02:57N 29°33' W 095°02'0 0.0
2018-Apr-08 02:30N 29°33' W 095°02'0 0.0
2018-Apr-08 01:56N 29°33' W 095°02'0 0.0
2018-Apr-08 01:23N 29°33' W 095°02'0 0.0
2018-Apr-08 00:59N 29°33' W 095°02'0 0.0
2018-Apr-08 00:30N 29°33' W 095°02'0 0.0
2018-Apr-07 20:29N 29°33' W 095°02'2 4.1
2018-Apr-07 20:00N 29°33' W 094°60'2 3.8
2018-Apr-07 19:30N 29°33' W 095°02'0 0.0
2018-Apr-07 14:58N 29°33' W 095°02'0 0.0
2018-Apr-07 14:29N 29°33' W 095°02'0 0.0
2018-Apr-07 13:59N 29°33' W 095°02'0 0.0
2018-Apr-07 13:29N 29°33' W 095°02'0 0.0
2018-Apr-07 12:58N 29°34' W 095°02'0 0.0
2018-Apr-07 11:00N 29°33' W 095°02'0 0.0
2018-Apr-07 10:27N 29°33' W 095°02'0 0.0
2018-Apr-07 08:38N 29°33' W 095°02'0 0.0
2018-Apr-07 08:26N 29°33' W 095°02'0 0.0
2018-Apr-07 07:48N 29°33' W 095°02'0 0.0
2018-Apr-07 01:52N 29°33' W 095°02'0 0.0
2018-Apr-07 00:52N 29°33' W 095°02'0 0.0
2018-Apr-07 00:26N 29°33' W 095°02'0 0.0
2018-Apr-06 23:59N 29°33' W 095°02'0 0.0
2018-Apr-06 23:29N 29°33' W 095°02'0 0.0
2018-Apr-06 22:59N 29°33' W 095°02'0 0.0
2018-Apr-06 22:29N 29°33' W 095°02'0 0.0
2018-Apr-06 22:00N 29°33' W 095°02'0 0.0
2018-Apr-06 21:28N 29°33' W 095°02'0 0.0
2018-Apr-06 20:54N 29°33' W 095°02'0 0.0
2018-Apr-06 20:30N 29°33' W 095°02'0 0.0
2018-Apr-06 20:00N 29°33' W 095°02'0 0.0
2018-Apr-06 19:30N 29°33' W 095°02'0 0.0
2018-Apr-06 19:00N 29°33' W 095°02'0 0.0
2018-Apr-06 18:30N 29°33' W 095°02'0 0.0
2018-Apr-06 17:57N 29°33' W 095°02'0 0.0
2018-Apr-06 17:30N 29°33' W 095°02'0 0.0
2018-Apr-06 17:00N 29°33' W 095°02'0 0.0
2018-Apr-06 11:39N 29°33' W 095°02'0 0.0
2018-Apr-06 11:22N 29°33' W 095°02'0 0.0
2018-Apr-06 07:05N 29°33' W 095°02'0 0.0
2018-Apr-06 03:38N 29°33' W 095°02'0 0.0
2018-Apr-06 01:48N 29°33' W 095°02'0 0.0
2018-Apr-06 01:30N 29°33' W 095°02'0 0.0
2018-Apr-06 00:55N 29°34' W 095°02'0 0.0
2018-Apr-06 00:27N 29°34' W 095°02'0 0.0
2018-Apr-05 23:58N 29°33' W 095°02'0 0.0
2018-Apr-05 23:28N 29°33' W 095°02'0 0.0
2018-Apr-05 23:00N 29°33' W 095°02'0 0.0
2018-Apr-05 22:28N 29°33' W 095°02'0 0.0
2018-Apr-05 21:58N 29°33' W 095°02'0 0.0
2018-Apr-05 21:20N 29°33' W 095°02'0 0.0
2018-Apr-05 20:58N 29°33' W 095°02'0 0.0
2018-Apr-05 20:28N 29°33' W 095°02'0 0.0
2018-Apr-05 19:58N 29°33' W 095°02'0 0.0
2018-Apr-05 19:28N 29°33' W 095°02'0 0.0
2018-Apr-05 18:58N 29°33' W 095°02'0 0.0
2018-Apr-05 18:30N 29°33' W 095°02'0 0.0
2018-Apr-05 18:00N 29°33' W 095°02'0 0.0
2018-Apr-05 17:30N 29°33' W 095°02'0 0.0
2018-Apr-05 17:00N 29°33' W 095°02'0 0.0
2018-Apr-05 16:29N 29°33' W 095°02'0 0.0
2018-Apr-05 15:57N 29°33' W 095°02'0 0.0
2018-Apr-05 15:15N 29°33' W 095°02'0 0.1
2018-Apr-05 14:59N 29°33' W 095°02'0 0.0
2018-Apr-05 14:29N 29°33' W 095°02'0 0.0
2018-Apr-05 13:59N 29°33' W 095°02'0 0.0
2018-Apr-05 13:26N 29°33' W 095°02'0 0.0
2018-Apr-05 12:59N 29°33' W 095°02'0 0.0
2018-Apr-05 12:29N 29°33' W 095°02'0 0.0
2018-Apr-05 11:58N 29°33' W 095°02'0 0.0
2018-Apr-05 11:28N 29°33' W 095°02'0 0.0
2018-Apr-05 10:58N 29°33' W 095°02'0 0.0
2018-Apr-05 10:30N 29°33' W 095°02'0 0.0
2018-Apr-05 09:42N 29°33' W 095°02'0 0.0
2018-Apr-05 09:30N 29°33' W 095°02'0 0.0
2018-Apr-05 09:00N 29°33' W 095°02'0 0.0
2018-Apr-05 08:30N 29°33' W 095°02'0 0.0
2018-Apr-05 07:59N 29°33' W 095°02'0 0.0
2018-Apr-05 07:27N 29°33' W 095°02'0 0.0
2018-Apr-05 06:50N 29°34' W 095°02'0 0.1
2018-Apr-05 06:29N 29°33' W 095°02'0 0.0
2018-Apr-05 05:56N 29°33' W 095°02'0 0.0
2018-Apr-05 05:26N 29°33' W 095°02'0 0.1
2018-Apr-05 04:59N 29°33' W 095°02'0 0.0
2018-Apr-05 04:09N 29°33' W 095°02'0 0.0
2018-Apr-05 04:00N 29°33' W 095°02'0 0.0
2018-Apr-05 03:23N 29°33' W 095°02'0 0.0
2018-Apr-05 02:56N 29°33' W 095°02'0 0.0
2018-Apr-05 02:28N 29°33' W 095°02'0 0.0
2018-Apr-05 01:53N 29°33' W 095°02'0 0.0
2018-Apr-05 01:30N 29°33' W 095°02'0 0.0
2018-Apr-05 00:54N 29°33' W 095°02'0 0.0
2018-Apr-05 00:30N 29°33' W 095°02'0 0.0
2018-Apr-05 00:00N 29°33' W 095°02'0 0.0
2018-Apr-04 23:30N 29°33' W 095°02'0 0.0
2018-Apr-04 23:00N 29°33' W 095°02'0 0.0
2018-Apr-04 22:30N 29°33' W 095°02'0 0.0
2018-Apr-04 21:31N 29°33' W 095°02'0 0.1
2018-Apr-04 21:25N 29°33' W 095°02'0 0.0
2018-Apr-04 20:55N 29°33' W 095°02'0 0.0
2018-Apr-04 20:28N 29°33' W 095°02'0 0.0
2018-Apr-04 19:58N 29°33' W 095°02'0 0.0
2018-Apr-04 19:28N 29°33' W 095°02'0 0.0
2018-Apr-04 18:58N 29°33' W 095°02'0 0.0
2018-Apr-04 18:28N 29°33' W 095°02'0 0.0
2018-Apr-04 17:58N 29°33' W 095°02'0 0.0
2018-Apr-04 17:28N 29°33' W 095°02'0 0.0
2018-Apr-04 16:58N 29°33' W 095°02'0 0.0
2018-Apr-04 16:30N 29°33' W 095°02'0 0.0
2018-Apr-04 15:59N 29°33' W 095°02'0 0.0
2018-Apr-04 15:13N 29°33' W 095°02'0 0.0
2018-Apr-04 14:59N 29°33' W 095°02'0 0.0
2018-Apr-04 14:29N 29°33' W 095°02'0 0.0
2018-Apr-04 13:56N 29°33' W 095°02'0 0.0
2018-Apr-04 13:29N 29°33' W 095°02'0 0.0
2018-Apr-04 12:59N 29°33' W 095°02'0 0.0
2018-Apr-04 12:29N 29°33' W 095°02'0 0.0
2018-Apr-04 11:59N 29°33' W 095°02'0 0.0
2018-Apr-04 11:26N 29°33' W 095°02'0 0.0
2018-Apr-04 11:00N 29°33' W 095°02'0 0.0
2018-Apr-04 09:45N 29°33' W 095°02'0 0.0
2018-Apr-04 09:29N 29°33' W 095°02'0 0.0
2018-Apr-04 08:56N 29°33' W 095°02'0 0.0
2018-Apr-04 08:26N 29°33' W 095°02'0 0.0
2018-Apr-04 06:39N 29°33' W 095°02'0 0.1
2018-Apr-04 06:30N 29°33' W 095°02'0 0.0
2018-Apr-04 05:57N 29°33' W 095°02'0 0.0
2018-Apr-04 04:22N 29°33' W 095°02'0 0.0
2018-Apr-04 03:58N 29°34' W 095°02'0 0.0
2018-Apr-04 03:24N 29°33' W 095°02'0 0.0
2018-Apr-04 02:57N 29°33' W 095°02'0 0.0
2018-Apr-04 00:27N 29°33' W 095°02'0 0.0
2018-Apr-04 00:00N 29°33' W 095°02'0 0.0
2018-Apr-03 23:30N 29°33' W 095°02'0 0.1
2018-Apr-03 22:57N 29°34' W 095°02'0 0.0
2018-Apr-03 22:30N 29°33' W 095°02'0 0.0
2018-Apr-03 21:25N 29°33' W 095°02'0 0.0
2018-Apr-03 20:58N 29°33' W 095°02'0 0.0
2018-Apr-03 20:28N 29°33' W 095°02'0 0.0
2018-Apr-03 19:58N 29°33' W 095°02'0 0.0
2018-Apr-03 19:28N 29°33' W 095°02'0 0.0
2018-Apr-03 19:00N 29°33' W 095°02'0 0.0
2018-Apr-03 18:28N 29°33' W 095°02'0 0.0
2018-Apr-03 17:58N 29°33' W 095°02'0 0.0
2018-Apr-03 17:28N 29°33' W 095°02'0 0.0
2018-Apr-03 16:58N 29°33' W 095°02'0 0.0
2018-Apr-03 16:30N 29°33' W 095°02'0 0.0
2018-Apr-03 15:05N 29°33' W 095°02'0 0.1
2018-Apr-03 14:59N 29°33' W 095°02'0 0.0
2018-Apr-03 14:29N 29°33' W 095°02'0 0.0
2018-Apr-03 13:59N 29°33' W 095°02'0 0.0
2018-Apr-03 13:29N 29°33' W 095°02'0 0.0
2018-Apr-03 00:30N 29°33' W 095°02'0 0.0
2018-Apr-03 00:00N 29°33' W 095°02'0 0.0
2018-Apr-02 23:30N 29°33' W 095°02'0 0.0
2018-Apr-02 22:24N 29°33' W 095°02'0 0.0
2018-Apr-02 21:28N 29°33' W 095°02'0 0.0
2018-Apr-02 20:58N 29°33' W 095°02'0 0.0
2018-Apr-02 20:28N 29°33' W 095°02'0 0.0
2018-Apr-02 19:58N 29°33' W 095°02'0 0.0
2018-Apr-02 19:25N 29°33' W 095°02'0 0.0
2018-Apr-02 18:58N 29°33' W 095°02'0 0.0
2018-Apr-02 18:28N 29°33' W 095°02'0 0.0
2018-Apr-02 17:59N 29°33' W 095°02'0 0.0
2018-Apr-02 17:29N 29°33' W 095°02'0 0.0
2018-Apr-02 16:59N 29°33' W 095°02'0 0.0
2018-Apr-02 15:08N 29°33' W 095°02'0 0.1
2018-Apr-02 14:59N 29°33' W 095°02'0 0.0
2018-Apr-02 14:26N 29°33' W 095°02'0 0.0
2018-Apr-02 13:59N 29°33' W 095°02'0 0.0
2018-Apr-02 13:29N 29°33' W 095°02'0 0.0
2018-Apr-02 12:56N 29°33' W 095°02'0 0.0
2018-Apr-02 00:28N 29°33' W 095°02'0 0.0
2018-Apr-01 23:58N 29°33' W 095°02'0 0.0
2018-Apr-01 23:28N 29°33' W 095°02'0 0.0
2018-Apr-01 22:58N 29°33' W 095°02'0 0.0
2018-Apr-01 22:29N 29°33' W 095°02'0 0.0
2018-Apr-01 22:00N 29°33' W 095°02'0 0.0
2018-Apr-01 21:26N 29°33' W 095°02'0 0.0
2018-Apr-01 20:56N 29°33' W 095°02'0 0.0
2018-Apr-01 20:29N 29°33' W 095°02'0 0.0
2018-Apr-01 19:56N 29°33' W 095°02'0 0.0
2018-Apr-01 19:30N 29°33' W 095°02'0 0.0
2018-Apr-01 18:13N 29°33' W 095°02'0 0.0
2018-Apr-01 18:00N 29°33' W 095°02'0 0.0
2018-Apr-01 17:29N 29°33' W 095°02'0 0.0
2018-Apr-01 17:01N 29°33' W 095°02'0 0.0
2018-Apr-01 15:16N 29°33' W 095°02'0 0.0
2018-Apr-01 14:58N 29°33' W 095°02'0 0.0
2018-Apr-01 14:28N 29°33' W 095°02'0 0.0
2018-Apr-01 13:55N 29°33' W 095°02'0 0.0
2018-Apr-01 13:28N 29°33' W 095°02'0 0.0
2018-Apr-01 12:59N 29°33' W 095°02'0 0.0
2018-Apr-01 08:39N 29°33' W 095°02'0 0.0
2018-Apr-01 08:29N 29°33' W 095°02'0 0.0
2018-Apr-01 07:56N 29°33' W 095°02'0 0.0
2018-Apr-01 00:33N 29°33' W 095°02'0 0.2
2018-Apr-01 00:30N 29°33' W 095°02'0 0.0
2018-Apr-01 00:00N 29°33' W 095°02'0 0.0
2018-Mar-31 23:30N 29°33' W 095°02'0 0.0
2018-Mar-31 23:00N 29°33' W 095°02'0 0.0
2018-Mar-31 22:30N 29°33' W 095°02'0 0.0
2018-Mar-31 21:57N 29°33' W 095°02'0 0.0
2018-Mar-31 21:29N 29°33' W 095°02'0 0.0
2018-Mar-31 20:59N 29°33' W 095°02'0 0.0
2018-Mar-31 20:29N 29°33' W 095°02'0 0.0
2018-Mar-31 19:59N 29°33' W 095°02'0 0.0
2018-Mar-31 19:29N 29°33' W 095°02'0 0.0
2018-Mar-31 18:59N 29°33' W 095°02'0 0.0
2018-Mar-31 18:27N 29°33' W 095°02'0 0.0
2018-Mar-31 17:53N 29°33' W 095°02'0 0.0
2018-Mar-31 17:27N 29°33' W 095°02'0 0.0
2018-Mar-31 17:00N 29°33' W 095°02'0 0.0
2018-Mar-31 15:28N 29°33' W 095°02'0 0.0
2018-Mar-31 14:58N 29°33' W 095°02'0 0.0
2018-Mar-31 14:28N 29°33' W 095°02'0 0.0
2018-Mar-31 13:58N 29°33' W 095°02'0 0.0
2018-Mar-31 13:28N 29°33' W 095°02'0 0.0
2018-Mar-31 12:58N 29°33' W 095°02'0 0.0
2018-Mar-31 09:28N 29°33' W 095°02'0 0.0
2018-Mar-31 08:58N 29°33' W 095°02'0 0.0
2018-Mar-31 08:28N 29°33' W 095°02'0 0.0
2018-Mar-31 07:33N 29°33' W 095°02'0 0.2
2018-Mar-31 07:30N 29°33' W 095°02'0 0.0
2018-Mar-31 06:48N 29°33' W 095°02'0 0.0
2018-Mar-31 06:25N 29°33' W 095°02'0 0.0
2018-Mar-31 04:30N 29°33' W 095°02'0 0.0
2018-Mar-31 03:58N 29°33' W 095°02'0 0.0
2018-Mar-31 03:22N 29°33' W 095°02'0 0.0
2018-Mar-31 02:52N 29°33' W 095°02'0 0.0
2018-Mar-31 02:22N 29°33' W 095°02'0 0.0
2018-Mar-31 01:55N 29°33' W 095°02'0 0.0
2018-Mar-31 01:17N 29°33' W 095°02'0 0.1
2018-Mar-31 01:00N 29°33' W 095°02'0 0.0
2018-Mar-31 00:30N 29°33' W 095°02'0 0.0
2018-Mar-31 00:00N 29°33' W 095°02'0 0.0
2018-Mar-30 23:27N 29°33' W 095°02'0 0.0
2018-Mar-30 22:58N 29°33' W 095°02'0 0.0
2018-Mar-30 22:28N 29°33' W 095°02'0 0.0
2018-Mar-30 21:52N 29°33' W 095°02'0 0.0
2018-Mar-30 21:30N 29°33' W 095°02'0 0.0
2018-Mar-30 21:00N 29°33' W 095°02'0 0.0
2018-Mar-30 20:30N 29°33' W 095°02'0 0.0
2018-Mar-30 20:00N 29°33' W 095°02'  
Track history (hours):
 
Tides and Currents Weather Stations Pressure Air Temp Water Temp Dewpoint Dewpoint Depression Visibility Wind Speed Wind Dir Waves Ship Positions

Dig In

Owner: Evans, Joseph W, Bacliff,, TX. More information available from US FCC via Universal Licensing System and Coast Guard Vessel Documentation Center.

Last reported at 2018-Apr-09 19:37 UTC. Time now 2018-Jul-16 12:33 UTC.
Position N 30°00' W 093°14'.
Warning: this ship's position is months out of date.

Length 16 m.

Type: Pleasure craft. MMSI: 367424660.

Date/timePositionNaut miles runAvg speedWind from/ knotsBaromVisibWave heightAir tempDewpointWater temp
2018-Apr-09 19:37N 30°00' W 093°14'1 9.0
2018-Apr-09 19:30N 30°01' W 093°14'510.4
2018-Apr-09 18:59N 30°05' W 093°18'1 1.1
2018-Apr-09 18:28N 30°06' W 093°18'2 4.7
2018-Apr-09 18:00N 30°05' W 093°20'2214.4
2018-Apr-09 16:30N 30°01' W 093°45'612.1
2018-Apr-09 16:00N 29°58' W 093°51'510.3
2018-Apr-09 15:30N 29°54' W 093°54'510.7
2018-Apr-09 15:00N 29°49' W 093°58'815.5
2018-Apr-09 14:30N 29°43' W 093°52'815.3
2018-Apr-09 14:00N 29°37' W 093°47'0 1.0
2018-Apr-09 13:30N 29°37' W 093°48'815.6
2018-Apr-09 13:00N 29°44' W 093°52'1 1.6
2018-Apr-09 12:30N 29°44' W 093°53'0 0.0
2018-Apr-09 11:59N 29°44' W 093°53'0 0.0
2018-Apr-09 11:30N 29°44' W 093°53'0 0.0
2018-Apr-09 11:00N 29°44' W 093°53'0 0.0
2018-Apr-09 10:30N 29°44' W 093°53'0 0.0
2018-Apr-09 10:00N 29°44' W 093°53'0 0.0
2018-Apr-09 09:29N 29°44' W 093°53'0 0.0
2018-Apr-09 09:00N 29°44' W 093°53'0 0.0
2018-Apr-09 08:29N 29°44' W 093°53'0 0.0
2018-Apr-09 08:00N 29°44' W 093°53'0 0.0
2018-Apr-09 07:30N 29°44' W 093°53'0 0.0
2018-Apr-09 07:00N 29°44' W 093°53'0 0.0
2018-Apr-09 06:30N 29°44' W 093°53'0 0.0
2018-Apr-09 05:59N 29°44' W 093°53'0 0.0
2018-Apr-09 05:29N 29°44' W 093°53'0 0.0
2018-Apr-09 05:00N 29°44' W 093°53'0 0.0
2018-Apr-09 04:30N 29°44' W 093°53'0 0.0
2018-Apr-09 04:00N 29°44' W 093°53'0 0.0
2018-Apr-09 03:28N 29°44' W 093°53'0 0.0
2018-Apr-09 03:00N 29°44' W 093°53'0 0.0
2018-Apr-09 02:30N 29°44' W 093°53'0 0.0
2018-Apr-09 02:00N 29°44' W 093°53'0 0.0
2018-Apr-09 01:29N 29°44' W 093°53'0 0.0
2018-Apr-09 01:00N 29°44' W 093°53'0 0.0
2018-Apr-09 00:30N 29°44' W 093°53'0 0.0
2018-Apr-09 00:00N 29°44' W 093°53'0 0.0
2018-Apr-08 23:30N 29°44' W 093°53'4 7.2
2018-Apr-08 23:00N 29°41' W 093°50'59 9.1
2018-Apr-08 16:33N 29°33' W 094°57'0 8.1
2018-Apr-08 16:30N 29°33' W 094°57'4 7.0
2018-Apr-08 16:01N 29°33' W 095°01'1 1.1
2018-Apr-08 15:31N 29°33' W 095°02'0 0.6
2018-Apr-08 14:58N 29°33' W 095°02'0 0.0
2018-Apr-08 14:28N 29°33' W 095°02'0 0.0
2018-Apr-08 14:01N 29°33' W 095°02'0 0.0
2018-Apr-08 13:25N 29°33' W 095°02'0 0.0
2018-Apr-08 12:58N 29°33' W 095°02'0 0.0
2018-Apr-08 12:17N 29°33' W 095°02'0 0.0
2018-Apr-08 11:59N 29°33' W 095°02'0 0.0
2018-Apr-08 11:26N 29°33' W 095°02'0 0.0
2018-Apr-08 10:59N 29°33' W 095°02'0 0.0
2018-Apr-08 10:29N 29°33' W 095°02'0 0.0
2018-Apr-08 09:25N 29°33' W 095°02'0 0.0
2018-Apr-08 08:57N 29°33' W 095°02'0 0.0
2018-Apr-08 08:28N 29°33' W 095°02'0 0.0
2018-Apr-08 08:00N 29°33' W 095°02'0 0.0
2018-Apr-08 07:28N 29°33' W 095°02'0 0.0
2018-Apr-08 06:56N 29°33' W 095°02'0 0.1
2018-Apr-08 06:25N 29°34' W 095°02'0 0.1
2018-Apr-08 05:57N 29°33' W 095°02'0 0.0
2018-Apr-08 05:30N 29°33' W 095°02'0 0.0
2018-Apr-08 05:00N 29°33' W 095°02'0 0.0
2018-Apr-08 04:27N 29°33' W 095°02'0 0.0
2018-Apr-08 04:00N 29°33' W 095°02'0 0.0
2018-Apr-08 03:30N 29°34' W 095°02'0 0.0
2018-Apr-08 02:57N 29°33' W 095°02'0 0.0
2018-Apr-08 02:30N 29°33' W 095°02'0 0.0
2018-Apr-08 01:56N 29°33' W 095°02'0 0.0
2018-Apr-08 01:23N 29°33' W 095°02'0 0.0
2018-Apr-08 00:59N 29°33' W 095°02'0 0.0
2018-Apr-08 00:30N 29°33' W 095°02'0 0.0
2018-Apr-07 20:29N 29°33' W 095°02'2 4.1
2018-Apr-07 20:00N 29°33' W 094°60'2 3.8
2018-Apr-07 19:30N 29°33' W 095°02'0 0.0
2018-Apr-07 14:58N 29°33' W 095°02'0 0.0
2018-Apr-07 14:29N 29°33' W 095°02'0 0.0
2018-Apr-07 13:59N 29°33' W 095°02'0 0.0
2018-Apr-07 13:29N 29°33' W 095°02'0 0.0
2018-Apr-07 12:58N 29°34' W 095°02'0 0.0
2018-Apr-07 11:00N 29°33' W 095°02'0 0.0
2018-Apr-07 10:27N 29°33' W 095°02'0 0.0
2018-Apr-07 08:38N 29°33' W 095°02'0 0.0
2018-Apr-07 08:26N 29°33' W 095°02'0 0.0
2018-Apr-07 07:48N 29°33' W 095°02'0 0.0
2018-Apr-07 01:52N 29°33' W 095°02'0 0.0
2018-Apr-07 00:52N 29°33' W 095°02'0 0.0
2018-Apr-07 00:26N 29°33' W 095°02'0 0.0
2018-Apr-06 23:59N 29°33' W 095°02'0 0.0
2018-Apr-06 23:29N 29°33' W 095°02'0 0.0
2018-Apr-06 22:59N 29°33' W 095°02'0 0.0
2018-Apr-06 22:29N 29°33' W 095°02'0 0.0
2018-Apr-06 22:00N 29°33' W 095°02'0 0.0
2018-Apr-06 21:28N 29°33' W 095°02'0 0.0
2018-Apr-06 20:54N 29°33' W 095°02'0 0.0
2018-Apr-06 20:30N 29°33' W 095°02'0 0.0
2018-Apr-06 20:00N 29°33' W 095°02'0 0.0
2018-Apr-06 19:30N 29°33' W 095°02'0 0.0
2018-Apr-06 19:00N 29°33' W 095°02'0 0.0
2018-Apr-06 18:30N 29°33' W 095°02'0 0.0
2018-Apr-06 17:57N 29°33' W 095°02'0 0.0
2018-Apr-06 17:30N 29°33' W 095°02'0 0.0
2018-Apr-06 17:00N 29°33' W 095°02'0 0.0
2018-Apr-06 11:39N 29°33' W 095°02'0 0.0
2018-Apr-06 11:22N 29°33' W 095°02'0 0.0
2018-Apr-06 07:05N 29°33' W 095°02'0 0.0
2018-Apr-06 03:38N 29°33' W 095°02'0 0.0
2018-Apr-06 01:48N 29°33' W 095°02'0 0.0
2018-Apr-06 01:30N 29°33' W 095°02'0 0.0
2018-Apr-06 00:55N 29°34' W 095°02'0 0.0
2018-Apr-06 00:27N 29°34' W 095°02'0 0.0
2018-Apr-05 23:58N 29°33' W 095°02'0 0.0
2018-Apr-05 23:28N 29°33' W 095°02'0 0.0
2018-Apr-05 23:00N 29°33' W 095°02'0 0.0
2018-Apr-05 22:28N 29°33' W 095°02'0 0.0
2018-Apr-05 21:58N 29°33' W 095°02'0 0.0
2018-Apr-05 21:20N 29°33' W 095°02'0 0.0
2018-Apr-05 20:58N 29°33' W 095°02'0 0.0
2018-Apr-05 20:28N 29°33' W 095°02'0 0.0
2018-Apr-05 19:58N 29°33' W 095°02'0 0.0
2018-Apr-05 19:28N 29°33' W 095°02'0 0.0
2018-Apr-05 18:58N 29°33' W 095°02'0 0.0
2018-Apr-05 18:30N 29°33' W 095°02'0 0.0
2018-Apr-05 18:00N 29°33' W 095°02'0 0.0
2018-Apr-05 17:30N 29°33' W 095°02'0 0.0
2018-Apr-05 17:00N 29°33' W 095°02'0 0.0
2018-Apr-05 16:29N 29°33' W 095°02'0 0.0
2018-Apr-05 15:57N 29°33' W 095°02'0 0.0
2018-Apr-05 15:15N 29°33' W 095°02'0 0.1
2018-Apr-05 14:59N 29°33' W 095°02'0 0.0
2018-Apr-05 14:29N 29°33' W 095°02'0 0.0
2018-Apr-05 13:59N 29°33' W 095°02'0 0.0
2018-Apr-05 13:26N 29°33' W 095°02'0 0.0
2018-Apr-05 12:59N 29°33' W 095°02'0 0.0
2018-Apr-05 12:29N 29°33' W 095°02'0 0.0
2018-Apr-05 11:58N 29°33' W 095°02'0 0.0
2018-Apr-05 11:28N 29°33' W 095°02'0 0.0
2018-Apr-05 10:58N 29°33' W 095°02'0 0.0
2018-Apr-05 10:30N 29°33' W 095°02'0 0.0
2018-Apr-05 09:42N 29°33' W 095°02'0 0.0
2018-Apr-05 09:30N 29°33' W 095°02'0 0.0
2018-Apr-05 09:00N 29°33' W 095°02'0 0.0
2018-Apr-05 08:30N 29°33' W 095°02'0 0.0
2018-Apr-05 07:59N 29°33' W 095°02'0 0.0
2018-Apr-05 07:27N 29°33' W 095°02'0 0.0
2018-Apr-05 06:50N 29°34' W 095°02'0 0.1
2018-Apr-05 06:29N 29°33' W 095°02'0 0.0
2018-Apr-05 05:56N 29°33' W 095°02'0 0.0
2018-Apr-05 05:26N 29°33' W 095°02'0 0.1
2018-Apr-05 04:59N 29°33' W 095°02'0 0.0
2018-Apr-05 04:09N 29°33' W 095°02'0 0.0
2018-Apr-05 04:00N 29°33' W 095°02'0 0.0
2018-Apr-05 03:23N 29°33' W 095°02'0 0.0
2018-Apr-05 02:56N 29°33' W 095°02'0 0.0
2018-Apr-05 02:28N 29°33' W 095°02'0 0.0
2018-Apr-05 01:53N 29°33' W 095°02'0 0.0
2018-Apr-05 01:30N 29°33' W 095°02'0 0.0
2018-Apr-05 00:54N 29°33' W 095°02'0 0.0
2018-Apr-05 00:30N 29°33' W 095°02'0 0.0
2018-Apr-05 00:00N 29°33' W 095°02'0 0.0
2018-Apr-04 23:30N 29°33' W 095°02'0 0.0
2018-Apr-04 23:00N 29°33' W 095°02'0 0.0
2018-Apr-04 22:30N 29°33' W 095°02'0 0.0
2018-Apr-04 21:31N 29°33' W 095°02'0 0.1
2018-Apr-04 21:25N 29°33' W 095°02'0 0.0
2018-Apr-04 20:55N 29°33' W 095°02'0 0.0
2018-Apr-04 20:28N 29°33' W 095°02'0 0.0
2018-Apr-04 19:58N 29°33' W 095°02'0 0.0
2018-Apr-04 19:28N 29°33' W 095°02'0 0.0
2018-Apr-04 18:58N 29°33' W 095°02'0 0.0
2018-Apr-04 18:28N 29°33' W 095°02'0 0.0
2018-Apr-04 17:58N 29°33' W 095°02'0 0.0
2018-Apr-04 17:28N 29°33' W 095°02'0 0.0
2018-Apr-04 16:58N 29°33' W 095°02'0 0.0
2018-Apr-04 16:30N 29°33' W 095°02'0 0.0
2018-Apr-04 15:59N 29°33' W 095°02'0 0.0
2018-Apr-04 15:13N 29°33' W 095°02'0 0.0
2018-Apr-04 14:59N 29°33' W 095°02'0 0.0
2018-Apr-04 14:29N 29°33' W 095°02'0 0.0
2018-Apr-04 13:56N 29°33' W 095°02'0 0.0
2018-Apr-04 13:29N 29°33' W 095°02'0 0.0
2018-Apr-04 12:59N 29°33' W 095°02'0 0.0
2018-Apr-04 12:29N 29°33' W 095°02'0 0.0
2018-Apr-04 11:59N 29°33' W 095°02'0 0.0
2018-Apr-04 11:26N 29°33' W 095°02'0 0.0
2018-Apr-04 11:00N 29°33' W 095°02'0 0.0
2018-Apr-04 09:45N 29°33' W 095°02'0 0.0
2018-Apr-04 09:29N 29°33' W 095°02'0 0.0
2018-Apr-04 08:56N 29°33' W 095°02'0 0.0
2018-Apr-04 08:26N 29°33' W 095°02'0 0.0
2018-Apr-04 06:39N 29°33' W 095°02'0 0.1
2018-Apr-04 06:30N 29°33' W 095°02'0 0.0
2018-Apr-04 05:57N 29°33' W 095°02'0 0.0
2018-Apr-04 04:22N 29°33' W 095°02'0 0.0
2018-Apr-04 03:58N 29°34' W 095°02'0 0.0
2018-Apr-04 03:24N 29°33' W 095°02'0 0.0
2018-Apr-04 02:57N 29°33' W 095°02'0 0.0
2018-Apr-04 00:27N 29°33' W 095°02'0 0.0
2018-Apr-04 00:00N 29°33' W 095°02'0 0.0
2018-Apr-03 23:30N 29°33' W 095°02'0 0.1
2018-Apr-03 22:57N 29°34' W 095°02'0 0.0
2018-Apr-03 22:30N 29°33' W 095°02'0 0.0
2018-Apr-03 21:25N 29°33' W 095°02'0 0.0
2018-Apr-03 20:58N 29°33' W 095°02'0 0.0
2018-Apr-03 20:28N 29°33' W 095°02'0 0.0
2018-Apr-03 19:58N 29°33' W 095°02'0 0.0
2018-Apr-03 19:28N 29°33' W 095°02'0 0.0
2018-Apr-03 19:00N 29°33' W 095°02'0 0.0
2018-Apr-03 18:28N 29°33' W 095°02'0 0.0
2018-Apr-03 17:58N 29°33' W 095°02'0 0.0
2018-Apr-03 17:28N 29°33' W 095°02'0 0.0
2018-Apr-03 16:58N 29°33' W 095°02'0 0.0
2018-Apr-03 16:30N 29°33' W 095°02'0 0.0
2018-Apr-03 15:05N 29°33' W 095°02'0 0.1
2018-Apr-03 14:59N 29°33' W 095°02'0 0.0
2018-Apr-03 14:29N 29°33' W 095°02'0 0.0
2018-Apr-03 13:59N 29°33' W 095°02'0 0.0
2018-Apr-03 13:29N 29°33' W 095°02'0 0.0
2018-Apr-03 00:30N 29°33' W 095°02'0 0.0
2018-Apr-03 00:00N 29°33' W 095°02'0 0.0
2018-Apr-02 23:30N 29°33' W 095°02'0 0.0
2018-Apr-02 22:24N 29°33' W 095°02'0 0.0
2018-Apr-02 21:28N 29°33' W 095°02'0 0.0
2018-Apr-02 20:58N 29°33' W 095°02'0 0.0
2018-Apr-02 20:28N 29°33' W 095°02'0 0.0
2018-Apr-02 19:58N 29°33' W 095°02'0 0.0
2018-Apr-02 19:25N 29°33' W 095°02'0 0.0
2018-Apr-02 18:58N 29°33' W 095°02'0 0.0
2018-Apr-02 18:28N 29°33' W 095°02'0 0.0
2018-Apr-02 17:59N 29°33' W 095°02'0 0.0
2018-Apr-02 17:29N 29°33' W 095°02'0 0.0
2018-Apr-02 16:59N 29°33' W 095°02'0 0.0
2018-Apr-02 15:08N 29°33' W 095°02'0 0.1
2018-Apr-02 14:59N 29°33' W 095°02'0 0.0
2018-Apr-02 14:26N 29°33' W 095°02'0 0.0
2018-Apr-02 13:59N 29°33' W 095°02'0 0.0
2018-Apr-02 13:29N 29°33' W 095°02'0 0.0
2018-Apr-02 12:56N 29°33' W 095°02'0 0.0
2018-Apr-02 00:28N 29°33' W 095°02'0 0.0
2018-Apr-01 23:58N 29°33' W 095°02'0 0.0
2018-Apr-01 23:28N 29°33' W 095°02'0 0.0
2018-Apr-01 22:58N 29°33' W 095°02'0 0.0
2018-Apr-01 22:29N 29°33' W 095°02'0 0.0
2018-Apr-01 22:00N 29°33' W 095°02'0 0.0
2018-Apr-01 21:26N 29°33' W 095°02'0 0.0
2018-Apr-01 20:56N 29°33' W 095°02'0 0.0
2018-Apr-01 20:29N 29°33' W 095°02'0 0.0
2018-Apr-01 19:56N 29°33' W 095°02'0 0.0
2018-Apr-01 19:30N 29°33' W 095°02'0 0.0
2018-Apr-01 18:13N 29°33' W 095°02'0 0.0
2018-Apr-01 18:00N 29°33' W 095°02'0 0.0
2018-Apr-01 17:29N 29°33' W 095°02'0 0.0
2018-Apr-01 17:01N 29°33' W 095°02'0 0.0
2018-Apr-01 15:16N 29°33' W 095°02'0 0.0
2018-Apr-01 14:58N 29°33' W 095°02'0 0.0
2018-Apr-01 14:28N 29°33' W 095°02'0 0.0
2018-Apr-01 13:55N 29°33' W 095°02'0 0.0
2018-Apr-01 13:28N 29°33' W 095°02'0 0.0
2018-Apr-01 12:59N 29°33' W 095°02'0 0.0
2018-Apr-01 08:39N 29°33' W 095°02'0 0.0
2018-Apr-01 08:29N 29°33' W 095°02'0 0.0
2018-Apr-01 07:56N 29°33' W 095°02'0 0.0
2018-Apr-01 00:33N 29°33' W 095°02'0 0.2
2018-Apr-01 00:30N 29°33' W 095°02'0 0.0
2018-Apr-01 00:00N 29°33' W 095°02'0 0.0
2018-Mar-31 23:30N 29°33' W 095°02'0 0.0
2018-Mar-31 23:00N 29°33' W 095°02'0 0.0
2018-Mar-31 22:30N 29°33' W 095°02'0 0.0
2018-Mar-31 21:57N 29°33' W 095°02'0 0.0
2018-Mar-31 21:29N 29°33' W 095°02'0 0.0
2018-Mar-31 20:59N 29°33' W 095°02'0 0.0
2018-Mar-31 20:29N 29°33' W 095°02'0 0.0
2018-Mar-31 19:59N 29°33' W 095°02'0 0.0
2018-Mar-31 19:29N 29°33' W 095°02'0 0.0
2018-Mar-31 18:59N 29°33' W 095°02'0 0.0
2018-Mar-31 18:27N 29°33' W 095°02'0 0.0
2018-Mar-31 17:53N 29°33' W 095°02'0 0.0
2018-Mar-31 17:27N 29°33' W 095°02'0 0.0
2018-Mar-31 17:00N 29°33' W 095°02'0 0.0
2018-Mar-31 15:28N 29°33' W 095°02'0 0.0
2018-Mar-31 14:58N 29°33' W 095°02'0 0.0
2018-Mar-31 14:28N 29°33' W 095°02'0 0.0
2018-Mar-31 13:58N 29°33' W 095°02'0 0.0
2018-Mar-31 13:28N 29°33' W 095°02'0 0.0
2018-Mar-31 12:58N 29°33' W 095°02'0 0.0
2018-Mar-31 09:28N 29°33' W 095°02'0 0.0
2018-Mar-31 08:58N 29°33' W 095°02'0 0.0
2018-Mar-31 08:28N 29°33' W 095°02'0 0.0
2018-Mar-31 07:33N 29°33' W 095°02'0 0.2
2018-Mar-31 07:30N 29°33' W 095°02'0 0.0
2018-Mar-31 06:48N 29°33' W 095°02'0 0.0
2018-Mar-31 06:25N 29°33' W 095°02'0 0.0
2018-Mar-31 04:30N 29°33' W 095°02'0 0.0
2018-Mar-31 03:58N 29°33' W 095°02'0 0.0
2018-Mar-31 03:22N 29°33' W 095°02'0 0.0
2018-Mar-31 02:52N 29°33' W 095°02'0 0.0
2018-Mar-31 02:22N 29°33' W 095°02'0 0.0
2018-Mar-31 01:55N 29°33' W 095°02'0 0.0
2018-Mar-31 01:17N 29°33' W 095°02'0 0.1
2018-Mar-31 01:00N 29°33' W 095°02'0 0.0
2018-Mar-31 00:30N 29°33' W 095°02'0 0.0
2018-Mar-31 00:00N 29°33' W 095°02'0 0.0
2018-Mar-30 23:27N 29°33' W 095°02'0 0.0
2018-Mar-30 22:58N 29°33' W 095°02'0 0.0
2018-Mar-30 22:28N 29°33' W 095°02'0 0.0
2018-Mar-30 21:52N 29°33' W 095°02'0 0.0
2018-Mar-30 21:30N 29°33' W 095°02'0 0.0
2018-Mar-30 21:00N 29°33' W 095°02'0 0.0
2018-Mar-30 20:30N 29°33' W 095°02'0 0.0
2018-Mar-30 20:00N 29°33' W 095°02'  

Dump ship's entire track history